Time;durP1;ratioP1;P1;durP2;ratioP2;P2;SDS_P1;SDS_P2;PMS_P1;PMS_P2;Temp;Humidity;BMP_temperature;BMP_pressure;BME280_temperature;BME280_humidity;BME280_pressure;Samples;Min_cycle;Max_cycle;Signal;HPM_P1;HPM_P2
2022/05/25 00:01:08;;;;;;;12.05;4.85;;;;;;;;;;4982289;28;20037;-83
2022/05/25 00:03:35;;;;;;;6.80;4.72;;;;;;;;;;4987224;28;20026;-85
2022/05/25 00:06:01;;;;;;;11.80;5.05;;;;;;;;;;4966362;28;20051;-84
2022/05/25 00:08:27;;;;;;;6.68;4.82;;;;;;;;;;4963804;28;20034;-83
2022/05/25 00:10:53;;;;;;;11.25;5.63;;;;;;;;;;4971278;28;20026;-83
2022/05/25 00:13:20;;;;;;;12.35;5.35;;;;;;;;;;4968654;28;20093;-84
2022/05/25 00:15:46;;;;;;;9.18;5.82;;;;;;;;;;4966078;28;20038;-84
2022/05/25 00:18:12;;;;;;;9.48;5.85;;;;;;;;;;4962068;28;20034;-82
2022/05/25 00:20:38;;;;;;;9.73;6.15;;;;;;;;;;4987230;28;20073;-85
2022/05/25 00:23:04;;;;;;;9.90;5.80;;;;;;;;;;4984373;28;20065;-84
2022/05/25 00:25:33;;;;;;;7.68;5.38;;;;;;;;;;4986471;28;20034;-85
2022/05/25 00:28:07;;;;;;;12.95;6.25;;;;;;;;;;4962732;28;20030;-84
2022/05/25 00:30:34;;;;;;;13.85;6.75;;;;;;;;;;4984520;28;20034;-84
2022/05/25 00:33:00;;;;;;;12.95;6.28;;;;;;;;;;4966039;28;20026;-85
2022/05/25 00:35:27;;;;;;;8.25;6.05;;;;;;;;;;4982457;28;20038;-84
2022/05/25 00:37:53;;;;;;;13.30;5.88;;;;;;;;;;4965249;28;20027;-84
2022/05/25 00:40:24;;;;;;;9.20;5.63;;;;;;;;;;4970359;28;20540;-84
2022/05/25 00:42:50;;;;;;;12.43;6.25;;;;;;;;;;4980494;28;20501;-84
2022/05/25 00:45:16;;;;;;;10.90;6.60;;;;;;;;;;4970151;28;20037;-85
2022/05/25 00:47:44;;;;;;;14.38;6.13;;;;;;;;;;4968957;28;20530;-85
2022/05/25 00:50:12;;;;;;;14.48;5.90;;;;;;;;;;4962767;28;20417;-85
2022/05/25 00:52:40;;;;;;;14.77;6.68;;;;;;;;;;4970041;28;20030;-84
2022/05/25 00:55:07;;;;;;;11.88;6.97;;;;;;;;;;4968618;28;20096;-85
2022/05/25 00:57:38;;;;;;;19.48;7.03;;;;;;;;;;4970185;28;20486;-85
2022/05/25 01:00:10;;;;;;;12.88;6.82;;;;;;;;;;4958557;28;20494;-85
2022/05/25 01:02:39;;;;;;;12.27;7.57;;;;;;;;;;4966874;28;20031;-82
2022/05/25 01:05:06;;;;;;;15.85;8.10;;;;;;;;;;4964337;28;20030;-83
2022/05/25 01:07:51;;;;;;;17.92;8.38;;;;;;;;;;4992761;28;20513;-81
2022/05/25 01:10:26;;;;;;;13.70;6.97;;;;;;;;;;4973541;28;20027;-82
2022/05/25 01:12:58;;;;;;;16.48;6.57;;;;;;;;;;4970082;28;20038;-82
2022/05/25 01:15:33;;;;;;;12.40;7.55;;;;;;;;;;4964208;28;20475;-83
2022/05/25 01:18:05;;;;;;;13.32;7.00;;;;;;;;;;4965142;28;20031;-83
2022/05/25 01:20:41;;;;;;;17.60;7.78;;;;;;;;;;4968475;28;20429;-83
2022/05/25 01:23:13;;;;;;;14.30;6.60;;;;;;;;;;4970544;28;20282;-83
2022/05/25 01:25:45;;;;;;;12.77;7.15;;;;;;;;;;4965707;28;20034;-83
2022/05/25 01:28:20;;;;;;;14.43;7.95;;;;;;;;;;4980729;28;20046;-83
2022/05/25 01:30:48;;;;;;;15.00;7.43;;;;;;;;;;4965964;28;20054;-83
2022/05/25 01:33:49;;;;;;;20.52;7.97;;;;;;;;;;4965928;28;20378;-84
2022/05/25 01:36:16;;;;;;;18.15;8.23;;;;;;;;;;4920669;29;21491;-83
2022/05/25 01:38:46;;;;;;;16.65;8.60;;;;;;;;;;4959191;28;20067;-84
2022/05/25 01:41:24;;;;;;;16.25;7.35;;;;;;;;;;4979378;28;20478;-83
2022/05/25 01:43:50;;;;;;;18.15;7.97;;;;;;;;;;4959484;28;20482;-83
2022/05/25 01:46:16;;;;;;;16.42;8.27;;;;;;;;;;4959123;28;20038;-83
2022/05/25 01:48:43;;;;;;;19.90;8.60;;;;;;;;;;4962221;28;20026;-83
2022/05/25 01:51:15;;;;;;;15.30;8.52;;;;;;;;;;4963774;28;20748;-83
2022/05/25 01:53:44;;;;;;;17.02;8.50;;;;;;;;;;4961999;28;20050;-83
2022/05/25 01:56:12;;;;;;;17.85;9.18;;;;;;;;;;4964481;28;20066;-83
2022/05/25 01:58:43;;;;;;;15.63;9.18;;;;;;;;;;4977610;28;20034;-83
2022/05/25 02:01:10;;;;;;;16.83;8.52;;;;;;;;;;4982678;28;20058;-83
2022/05/25 02:06:47;;;;;;;25.02;9.73;;;;;;;;;;4902687;28;20536;-83
2022/05/25 02:09:17;;;;;;;17.67;9.32;;;;;;;;;;4890769;29;20056;-82
2022/05/25 02:11:45;;;;;;;19.77;9.57;;;;;;;;;;4934386;28;20047;-83
2022/05/25 02:14:30;;;;;;;18.95;10.05;;;;;;;;;;4982372;28;20066;-84
2022/05/25 02:16:56;;;;;;;19.42;10.25;;;;;;;;;;4981028;28;20039;-83
2022/05/25 02:19:36;;;;;;;16.75;9.95;;;;;;;;;;4969648;28;20038;-83
2022/05/25 02:22:07;;;;;;;25.52;10.95;;;;;;;;;;4972629;28;20406;-83
2022/05/25 02:24:36;;;;;;;19.55;10.80;;;;;;;;;;4971610;28;20054;-83
2022/05/25 02:27:03;;;;;;;21.85;11.25;;;;;;;;;;4971405;28;20129;-83
2022/05/25 02:29:31;;;;;;;22.33;11.68;;;;;;;;;;4966613;28;20026;-83
2022/05/25 02:32:01;;;;;;;27.92;11.75;;;;;;;;;;4969223;28;20030;-83
2022/05/25 02:34:33;;;;;;;20.02;11.15;;;;;;;;;;4962064;28;20030;-83
2022/05/25 02:37:00;;;;;;;27.48;11.43;;;;;;;;;;4982607;28;20406;-83
2022/05/25 02:39:26;;;;;;;29.80;13.13;;;;;;;;;;4968951;28;20034;-83
2022/05/25 02:41:54;;;;;;;32.03;12.63;;;;;;;;;;4969329;28;20528;-83
2022/05/25 02:44:20;;;;;;;20.38;11.48;;;;;;;;;;4967840;28;20034;-83
2022/05/25 02:46:46;;;;;;;25.52;11.73;;;;;;;;;;4968698;28;20038;-83
2022/05/25 02:49:12;;;;;;;24.23;12.57;;;;;;;;;;4970181;28;20037;-83
2022/05/25 02:51:38;;;;;;;24.75;12.52;;;;;;;;;;4967285;28;20035;-84
2022/05/25 02:54:13;;;;;;;27.23;12.73;;;;;;;;;;4967348;28;20078;-83
2022/05/25 02:56:39;;;;;;;27.88;13.68;;;;;;;;;;4982705;28;20512;-83
2022/05/25 02:59:06;;;;;;;28.15;13.30;;;;;;;;;;4964564;28;20066;-83
2022/05/25 03:01:32;;;;;;;26.63;12.55;;;;;;;;;;4969490;28;20108;-84
2022/05/25 03:03:58;;;;;;;29.85;12.27;;;;;;;;;;4968699;28;20053;-83
2022/05/25 03:06:31;;;;;;;25.58;12.13;;;;;;;;;;4967102;28;20050;-83
2022/05/25 03:09:03;;;;;;;29.00;13.27;;;;;;;;;;4979529;28;20081;-83
2022/05/25 03:11:29;;;;;;;27.48;13.35;;;;;;;;;;4983469;28;20405;-83
2022/05/25 03:13:55;;;;;;;21.95;12.02;;;;;;;;;;4980702;28;20042;-83
2022/05/25 03:16:22;;;;;;;31.08;13.27;;;;;;;;;;4972164;28;20033;-83
2022/05/25 03:18:50;;;;;;;27.10;12.75;;;;;;;;;;4968157;28;20042;-83
2022/05/25 03:21:16;;;;;;;27.80;12.32;;;;;;;;;;4963111;28;20080;-82
2022/05/25 03:23:42;;;;;;;26.45;13.00;;;;;;;;;;4973136;28;20597;-84
2022/05/25 03:26:08;;;;;;;28.13;12.68;;;;;;;;;;4970587;28;20053;-84
2022/05/25 03:28:35;;;;;;;29.00;12.00;;;;;;;;;;4967449;28;20038;-84
2022/05/25 03:31:01;;;;;;;27.67;13.27;;;;;;;;;;4972559;28;20038;-83
2022/05/25 03:33:27;;;;;;;25.73;12.57;;;;;;;;;;4981265;28;20097;-83
2022/05/25 03:35:53;;;;;;;26.42;12.98;;;;;;;;;;4979566;28;20042;-83
2022/05/25 03:38:19;;;;;;;26.52;12.82;;;;;;;;;;4971571;28;20040;-83
2022/05/25 03:40:46;;;;;;;32.90;13.40;;;;;;;;;;4967779;28;20084;-83
2022/05/25 03:43:14;;;;;;;24.13;13.50;;;;;;;;;;4977598;28;20442;-84
2022/05/25 03:45:40;;;;;;;29.20;13.48;;;;;;;;;;4971014;28;20044;-83
2022/05/25 03:48:07;;;;;;;29.23;13.32;;;;;;;;;;4970911;28;20038;-83
2022/05/25 03:50:37;;;;;;;26.10;12.48;;;;;;;;;;4967540;28;20049;-83
2022/05/25 03:53:03;;;;;;;22.77;11.98;;;;;;;;;;4965747;28;20038;-83
2022/05/25 03:55:29;;;;;;;26.55;13.35;;;;;;;;;;4967100;28;20449;-83
2022/05/25 03:57:55;;;;;;;24.90;12.18;;;;;;;;;;4969068;28;20077;-83
2022/05/25 04:00:22;;;;;;;27.15;12.18;;;;;;;;;;4965014;28;20070;-83
2022/05/25 04:02:48;;;;;;;28.92;12.40;;;;;;;;;;4969455;28;20121;-83
2022/05/25 04:05:14;;;;;;;27.25;12.27;;;;;;;;;;4962670;28;20561;-83
2022/05/25 04:07:42;;;;;;;26.77;13.02;;;;;;;;;;4965675;28;20406;-83
2022/05/25 04:10:11;;;;;;;26.65;12.55;;;;;;;;;;4964774;28;20039;-83
2022/05/25 04:12:37;;;;;;;23.85;11.85;;;;;;;;;;4962378;28;20045;-83
2022/05/25 04:15:03;;;;;;;25.13;12.70;;;;;;;;;;4958482;28;20493;-83
2022/05/25 04:17:32;;;;;;;26.77;12.25;;;;;;;;;;4982114;28;21178;-83
2022/05/25 04:19:58;;;;;;;24.13;11.40;;;;;;;;;;4971147;28;20446;-83
2022/05/25 04:22:24;;;;;;;27.42;12.48;;;;;;;;;;4963720;28;20131;-84
2022/05/25 04:24:50;;;;;;;24.85;12.20;;;;;;;;;;4967889;28;20026;-82
2022/05/25 04:27:17;;;;;;;27.48;12.77;;;;;;;;;;4964389;28;20031;-82
2022/05/25 04:29:43;;;;;;;22.52;10.55;;;;;;;;;;4971886;28;20062;-83
2022/05/25 04:32:09;;;;;;;23.25;11.82;;;;;;;;;;4965742;28;20026;-83
2022/05/25 04:34:35;;;;;;;27.80;13.02;;;;;;;;;;4983906;28;20398;-83
2022/05/25 04:39:46;;;;;;;26.88;12.98;;;;;;;;;;4979392;28;20049;-83
2022/05/25 04:42:12;;;;;;;20.05;11.20;;;;;;;;;;4989372;28;20035;-83
2022/05/25 04:44:38;;;;;;;22.15;12.63;;;;;;;;;;4978733;28;20081;-83
2022/05/25 04:47:08;;;;;;;19.33;10.52;;;;;;;;;;4969963;28;20038;-83
2022/05/25 04:49:34;;;;;;;20.48;10.23;;;;;;;;;;4974620;28;20173;-84
2022/05/25 04:52:00;;;;;;;16.38;10.07;;;;;;;;;;4965052;28;20101;-83
2022/05/25 04:54:26;;;;;;;22.17;10.60;;;;;;;;;;4967370;28;20050;-84
2022/05/25 04:59:37;;;;;;;16.58;9.20;;;;;;;;;;4981144;28;20504;-84
2022/05/25 05:02:04;;;;;;;17.42;9.65;;;;;;;;;;4980839;28;20481;-83
2022/05/25 05:04:30;;;;;;;19.33;7.43;;;;;;;;;;4965589;28;20484;-84
2022/05/25 05:06:56;;;;;;;17.75;9.93;;;;;;;;;;4988237;28;20046;-83
2022/05/25 05:09:22;;;;;;;20.98;9.43;;;;;;;;;;4969646;28;20500;-84
2022/05/25 05:11:48;;;;;;;16.10;9.15;;;;;;;;;;4972347;28;20022;-84
2022/05/25 05:14:15;;;;;;;15.13;8.30;;;;;;;;;;4982057;28;20402;-82
2022/05/25 05:16:41;;;;;;;17.65;9.30;;;;;;;;;;4970024;28;20381;-83
2022/05/25 05:19:07;;;;;;;17.02;9.60;;;;;;;;;;4968891;28;20034;-83
2022/05/25 05:21:34;;;;;;;15.82;8.63;;;;;;;;;;4979685;28;20445;-84
2022/05/25 05:24:01;;;;;;;19.05;8.77;;;;;;;;;;4963076;28;20333;-82
2022/05/25 05:26:27;;;;;;;17.98;8.65;;;;;;;;;;4967192;28;20347;-84
2022/05/25 05:28:55;;;;;;;17.58;8.93;;;;;;;;;;4966234;28;20105;-83
2022/05/25 05:31:22;;;;;;;14.45;8.85;;;;;;;;;;4974846;28;20136;-83
2022/05/25 05:33:48;;;;;;;21.48;9.85;;;;;;;;;;4965660;28;20402;-83
2022/05/25 05:36:17;;;;;;;15.32;9.13;;;;;;;;;;4969345;28;20422;-84
2022/05/25 05:38:49;;;;;;;17.60;8.48;;;;;;;;;;4966624;28;20039;-82
2022/05/25 05:41:15;;;;;;;16.77;8.75;;;;;;;;;;4962503;28;20035;-82
2022/05/25 05:43:41;;;;;;;16.13;8.27;;;;;;;;;;4967266;28;20421;-83
2022/05/25 05:46:08;;;;;;;12.20;8.68;;;;;;;;;;4980304;28;20418;-82
2022/05/25 05:48:35;;;;;;;15.13;8.27;;;;;;;;;;4986073;28;20038;-82
2022/05/25 05:51:04;;;;;;;15.75;7.90;;;;;;;;;;4972350;28;20043;-83
2022/05/25 05:53:30;;;;;;;14.95;8.73;;;;;;;;;;4971285;28;20034;-83
2022/05/25 05:55:57;;;;;;;13.98;7.90;;;;;;;;;;4968573;28;20038;-83
2022/05/25 05:58:23;;;;;;;13.82;7.88;;;;;;;;;;4970232;28;20391;-84
2022/05/25 06:00:50;;;;;;;9.75;7.03;;;;;;;;;;4971722;28;20112;-83
2022/05/25 06:03:16;;;;;;;17.50;8.00;;;;;;;;;;4972262;28;20215;-83
2022/05/25 06:05:45;;;;;;;10.13;6.43;;;;;;;;;;4974608;28;20030;-83
2022/05/25 06:08:13;;;;;;;10.20;7.25;;;;;;;;;;4951289;28;20161;-83
2022/05/25 06:10:40;;;;;;;14.70;7.28;;;;;;;;;;4966899;28;20525;-87
2022/05/25 06:13:07;;;;;;;15.45;8.23;;;;;;;;;;4973319;28;20042;-87
2022/05/25 06:21:04;;;;;;;16.63;7.05;;;;;;;;;;4974150;28;20045;-88
2022/05/25 06:23:30;;;;;;;13.88;6.75;;;;;;;;;;4968298;28;20027;-89
2022/05/25 06:25:56;;;;;;;13.57;6.65;;;;;;;;;;4972153;28;20038;-90
2022/05/25 06:28:22;;;;;;;23.27;6.55;;;;;;;;;;4970736;28;20035;-87
2022/05/25 06:30:48;;;;;;;11.18;6.07;;;;;;;;;;4968051;28;20034;-84
2022/05/25 06:33:14;;;;;;;12.30;5.68;;;;;;;;;;4967067;28;20089;-88
2022/05/25 06:35:40;;;;;;;9.35;4.78;;;;;;;;;;4955050;28;20034;-87
2022/05/25 06:38:06;;;;;;;5.88;4.55;;;;;;;;;;4969228;28;20039;-88
2022/05/25 06:40:35;;;;;;;11.02;5.25;;;;;;;;;;4969995;28;20035;-89
2022/05/25 06:43:01;;;;;;;7.88;4.13;;;;;;;;;;4967941;28;20110;-89
2022/05/25 06:45:27;;;;;;;11.48;4.95;;;;;;;;;;4968497;28;20101;-89
2022/05/25 06:47:53;;;;;;;13.52;5.03;;;;;;;;;;4954095;28;20066;-89
2022/05/25 06:50:19;;;;;;;12.77;4.97;;;;;;;;;;4962029;28;20070;-90
2022/05/25 06:52:46;;;;;;;7.10;4.47;;;;;;;;;;4972607;28;20487;-90
2022/05/25 06:55:11;;;;;;;6.30;3.85;;;;;;;;;;4969289;28;20038;-91
2022/05/25 06:57:44;;;;;;;8.63;4.07;;;;;;;;;;4954185;28;20710;-91
2022/05/25 07:00:11;;;;;;;6.63;3.88;;;;;;;;;;4967375;28;20513;-91
2022/05/25 07:02:37;;;;;;;6.63;4.50;;;;;;;;;;4954393;28;20065;-90
2022/05/25 07:05:04;;;;;;;6.07;4.15;;;;;;;;;;4967341;28;20026;-90
2022/05/25 07:07:32;;;;;;;19.00;4.53;;;;;;;;;;4956723;28;20074;-91
2022/05/25 07:09:59;;;;;;;12.10;5.25;;;;;;;;;;4950181;28;20074;-91
2022/05/25 07:12:25;;;;;;;7.10;4.38;;;;;;;;;;4952730;28;20037;-88
2022/05/25 07:14:51;;;;;;;8.98;3.85;;;;;;;;;;4950032;28;20050;-90
2022/05/25 07:17:21;;;;;;;7.85;3.78;;;;;;;;;;4948835;28;20034;-91
2022/05/25 07:19:47;;;;;;;9.63;3.35;;;;;;;;;;4952305;28;20043;-90
2022/05/25 07:22:13;;;;;;;17.67;4.57;;;;;;;;;;4955976;28;20059;-90
2022/05/25 07:24:39;;;;;;;9.90;4.00;;;;;;;;;;4953648;28;20058;-91
2022/05/25 07:27:05;;;;;;;7.95;3.60;;;;;;;;;;4953389;28;20085;-91
2022/05/25 07:29:31;;;;;;;9.10;3.45;;;;;;;;;;4950724;28;20368;-90
2022/05/25 07:32:01;;;;;;;8.57;3.63;;;;;;;;;;4949532;28;20125;-83
2022/05/25 07:34:29;;;;;;;9.75;3.78;;;;;;;;;;4952609;28;20034;-84
2022/05/25 07:36:57;;;;;;;9.10;3.78;;;;;;;;;;4950230;28;20525;-83
2022/05/25 07:39:27;;;;;;;7.55;3.35;;;;;;;;;;4943380;28;20046;-84
2022/05/25 07:41:55;;;;;;;10.63;3.55;;;;;;;;;;4941292;28;20474;-84
2022/05/25 07:44:29;;;;;;;7.30;3.88;;;;;;;;;;4950177;28;20019;-84
2022/05/25 07:46:55;;;;;;;6.15;3.17;;;;;;;;;;4951298;28;20085;-84
2022/05/25 07:49:23;;;;;;;7.00;3.30;;;;;;;;;;4948682;28;20047;-84
2022/05/25 07:51:49;;;;;;;9.90;4.10;;;;;;;;;;4948880;28;20035;-85
2022/05/25 07:54:15;;;;;;;5.43;2.38;;;;;;;;;;4946168;28;20026;-85
2022/05/25 07:56:42;;;;;;;5.60;3.15;;;;;;;;;;4948132;28;20041;-84
2022/05/25 07:59:13;;;;;;;5.22;3.30;;;;;;;;;;4947010;28;20137;-84
2022/05/25 08:07:13;;;;;;;14.13;3.42;;;;;;;;;;4973178;28;20458;-84
2022/05/25 08:09:39;;;;;;;8.98;3.50;;;;;;;;;;4968825;28;20041;-85
2022/05/25 08:12:10;;;;;;;3.63;2.60;;;;;;;;;;4984351;28;20478;-85
2022/05/25 08:14:36;;;;;;;6.70;3.13;;;;;;;;;;4967280;28;20425;-84
2022/05/25 08:17:03;;;;;;;6.22;2.90;;;;;;;;;;4979344;28;20494;-86
2022/05/25 08:19:30;;;;;;;8.38;3.72;;;;;;;;;;4963381;28;20085;-84
2022/05/25 08:21:56;;;;;;;6.97;3.40;;;;;;;;;;4979170;28;20038;-84
2022/05/25 08:24:23;;;;;;;5.75;2.70;;;;;;;;;;4971056;28;20480;-84
2022/05/25 08:26:49;;;;;;;8.57;3.40;;;;;;;;;;4964376;28;20022;-84
2022/05/25 08:29:15;;;;;;;6.18;3.53;;;;;;;;;;4966890;28;20049;-84
2022/05/25 08:31:41;;;;;;;4.40;2.97;;;;;;;;;;4963590;28;20074;-84
2022/05/25 08:34:14;;;;;;;7.45;3.85;;;;;;;;;;4967350;28;20065;-85
2022/05/25 08:36:40;;;;;;;5.47;3.58;;;;;;;;;;4965403;28;20085;-85
2022/05/25 08:39:06;;;;;;;7.03;3.40;;;;;;;;;;4983509;28;20034;-84
2022/05/25 08:41:37;;;;;;;9.80;4.13;;;;;;;;;;4979876;28;20465;-83
2022/05/25 08:44:04;;;;;;;6.85;3.35;;;;;;;;;;4968163;28;20038;-83
2022/05/25 08:46:38;;;;;;;8.00;3.65;;;;;;;;;;4976095;28;20563;-83
2022/05/25 08:49:07;;;;;;;5.10;3.03;;;;;;;;;;4978142;28;20379;-83
2022/05/25 08:51:34;;;;;;;4.43;2.83;;;;;;;;;;4966357;28;20034;-84
2022/05/25 08:54:01;;;;;;;3.55;1.90;;;;;;;;;;4965740;28;20026;-85
2022/05/25 08:56:36;;;;;;;3.15;2.17;;;;;;;;;;4964508;28;20129;-84
2022/05/25 08:59:18;;;;;;;3.97;2.50;;;;;;;;;;4971842;28;20053;-84
2022/05/25 09:01:49;;;;;;;4.57;2.33;;;;;;;;;;4977136;28;20537;-84
2022/05/25 09:04:18;;;;;;;2.67;1.65;;;;;;;;;;4962812;28;20401;-85
2022/05/25 09:06:44;;;;;;;5.70;2.40;;;;;;;;;;4966979;28;20066;-84
2022/05/25 09:09:20;;;;;;;5.60;2.67;;;;;;;;;;4964141;28;20548;-83
2022/05/25 09:11:57;;;;;;;4.25;2.15;;;;;;;;;;4964981;28;20088;-85
2022/05/25 09:14:44;;;;;;;5.07;2.97;;;;;;;;;;4967382;28;20433;-85
2022/05/25 09:17:10;;;;;;;;;;;;;;;;;;4967151;28;20039;-85
2022/05/25 09:19:38;;;;;;;3.63;2.78;;;;;;;;;;4968903;28;20176;-85
2022/05/25 09:22:09;;;;;;;5.55;2.65;;;;;;;;;;4967966;28;20533;-84
2022/05/25 09:24:36;;;;;;;5.43;3.35;;;;;;;;;;4970939;28;20359;-84
2022/05/25 09:27:03;;;;;;;3.22;2.45;;;;;;;;;;4970690;28;20031;-85
2022/05/25 09:29:30;;;;;;;4.80;2.80;;;;;;;;;;4981292;28;20418;-84
2022/05/25 09:32:00;;;;;;;4.18;2.42;;;;;;;;;;4968774;28;20034;-83
2022/05/25 09:34:29;;;;;;;6.03;2.42;;;;;;;;;;4988623;28;20118;-83
2022/05/25 09:37:00;;;;;;;3.28;2.30;;;;;;;;;;4969824;28;20038;-87
2022/05/25 09:39:30;;;;;;;3.88;2.60;;;;;;;;;;4977436;28;20371;-88
2022/05/25 09:41:58;;;;;;;9.73;2.55;;;;;;;;;;4978238;28;20042;-88
2022/05/25 09:44:26;;;;;;;5.50;2.25;;;;;;;;;;4973980;28;20062;-90
2022/05/25 09:46:57;;;;;;;4.30;2.78;;;;;;;;;;4979948;28;20034;-91
2022/05/25 09:49:35;;;;;;;3.97;2.97;;;;;;;;;;4976054;28;20066;-89
2022/05/25 09:52:03;;;;;;;3.13;2.17;;;;;;;;;;4985817;28;20034;-89
2022/05/25 09:54:36;;;;;;;3.00;2.50;;;;;;;;;;4971801;28;20038;-89
2022/05/25 09:57:06;;;;;;;2.15;1.83;;;;;;;;;;4972559;28;20195;-90
2022/05/25 09:59:37;;;;;;;7.38;3.00;;;;;;;;;;4985729;28;20038;-89
2022/05/25 10:02:29;;;;;;;5.20;2.83;;;;;;;;;;4985369;28;20038;-89
2022/05/25 10:04:56;;;;;;;7.38;2.90;;;;;;;;;;4968990;28;20406;-87
2022/05/25 10:07:30;;;;;;;9.07;2.95;;;;;;;;;;4992063;28;20042;-89
2022/05/25 10:09:59;;;;;;;4.95;2.80;;;;;;;;;;4971293;28;20513;-90
2022/05/25 10:12:40;;;;;;;8.02;3.20;;;;;;;;;;4986709;28;20455;-90
2022/05/25 10:15:08;;;;;;;6.10;3.53;;;;;;;;;;4968389;28;20121;-90
2022/05/25 10:17:37;;;;;;;5.68;2.30;;;;;;;;;;4990026;28;20026;-88
2022/05/25 10:20:05;;;;;;;4.95;2.38;;;;;;;;;;4990493;28;20101;-88
2022/05/25 10:22:31;;;;;;;6.78;2.72;;;;;;;;;;4988872;28;20740;-89
2022/05/25 10:25:04;;;;;;;9.05;2.50;;;;;;;;;;4966390;28;20509;-89
2022/05/25 10:27:34;;;;;;;7.80;3.40;;;;;;;;;;4972410;28;20039;-90
2022/05/25 10:38:28;;;;;;;3.47;3.10;;;;;;;;;;4988394;28;20093;-89
2022/05/25 10:40:54;;;;;;;6.03;3.13;;;;;;;;;;4979170;28;20121;-89
2022/05/25 10:43:28;;;;;;;6.55;3.03;;;;;;;;;;4971923;28;20038;-89
2022/05/25 10:45:55;;;;;;;4.60;3.05;;;;;;;;;;4984786;28;20042;-89
2022/05/25 10:48:21;;;;;;;8.18;3.28;;;;;;;;;;4982525;28;20116;-89
2022/05/25 10:50:47;;;;;;;6.72;3.53;;;;;;;;;;4967871;28;20069;-89
2022/05/25 10:53:30;;;;;;;7.47;3.08;;;;;;;;;;4973261;28;20049;-89
2022/05/25 10:56:15;;;;;;;5.05;3.90;;;;;;;;;;4987565;28;20038;-89
2022/05/25 10:58:41;;;;;;;5.30;3.28;;;;;;;;;;4987499;28;20103;-88
2022/05/25 11:01:07;;;;;;;7.07;3.83;;;;;;;;;;4987808;28;20125;-89
2022/05/25 11:03:52;;;;;;;7.40;3.45;;;;;;;;;;4974306;28;20128;-89
2022/05/25 11:06:35;;;;;;;5.05;3.58;;;;;;;;;;4982898;28;20094;-88
2022/05/25 11:09:13;;;;;;;15.95;4.78;;;;;;;;;;4972068;28;20062;-89
2022/05/25 11:11:44;;;;;;;12.23;5.13;;;;;;;;;;4973202;28;20035;-89
2022/05/25 11:14:36;;;;;;;8.55;5.60;;;;;;;;;;4986841;28;20035;-88
2022/05/25 11:17:14;;;;;;;18.40;6.15;;;;;;;;;;4965928;28;20097;-90
2022/05/25 11:19:52;;;;;;;39.00;7.35;;;;;;;;;;4974151;28;20150;-87
2022/05/25 11:22:30;;;;;;;12.32;5.00;;;;;;;;;;4980160;28;20030;-87
2022/05/25 11:25:06;;;;;;;12.05;6.70;;;;;;;;;;4972848;28;20213;-86
2022/05/25 11:27:33;;;;;;;;;;;;;;;;;;4968596;28;20038;-87
2022/05/25 11:30:08;;;;;;;11.32;5.20;;;;;;;;;;4980957;28;19913;-87
2022/05/25 11:32:57;;;;;;;7.47;5.30;;;;;;;;;;4982095;28;20751;-86
2022/05/25 11:35:27;;;;;;;14.05;5.00;;;;;;;;;;4970039;28;20030;-88
2022/05/25 11:37:57;;;;;;;7.35;4.13;;;;;;;;;;4968853;28;20060;-87
2022/05/25 11:40:36;;;;;;;8.95;3.60;;;;;;;;;;4965116;28;20109;-87
2022/05/25 11:43:08;;;;;;;6.65;3.63;;;;;;;;;;4970163;28;20035;-87
2022/05/25 11:45:47;;;;;;;16.30;5.15;;;;;;;;;;4985606;28;20493;-85
2022/05/25 11:48:33;;;;;;;12.50;4.00;;;;;;;;;;4969744;28;20105;-87
2022/05/25 11:51:16;;;;;;;7.32;4.60;;;;;;;;;;4965677;28;20556;-87
2022/05/25 11:54:01;;;;;;;13.65;4.63;;;;;;;;;;4965593;28;20089;-87
2022/05/25 11:56:30;;;;;;;8.10;4.90;;;;;;;;;;4967119;28;20558;-89
2022/05/25 11:58:56;;;;;;;8.85;5.63;;;;;;;;;;4967026;28;20093;-89
2022/05/25 12:01:41;;;;;;;11.15;6.00;;;;;;;;;;4968879;28;20031;-87
2022/05/25 12:04:10;;;;;;;10.50;6.28;;;;;;;;;;4965538;28;20533;-87
2022/05/25 12:06:55;;;;;;;11.43;5.28;;;;;;;;;;4970584;28;20023;-87
2022/05/25 12:09:38;;;;;;;10.45;6.00;;;;;;;;;;4964665;28;20425;-88
2022/05/25 12:12:09;;;;;;;14.05;6.55;;;;;;;;;;4987725;28;20430;-88
2022/05/25 12:14:44;;;;;;;8.23;4.93;;;;;;;;;;4984446;28;20026;-88
2022/05/25 12:17:30;;;;;;;13.73;6.05;;;;;;;;;;4984730;28;20427;-87
2022/05/25 12:19:59;;;;;;;3.92;2.60;;;;;;;;;;4975542;28;20394;-89
2022/05/25 12:22:30;;;;;;;5.70;2.15;;;;;;;;;;4978800;28;20034;-88
2022/05/25 12:24:58;;;;;;;3.05;2.42;;;;;;;;;;4977366;28;20386;-87
2022/05/25 12:27:28;;;;;;;3.70;2.13;;;;;;;;;;4990244;28;20433;-87
2022/05/25 12:29:56;;;;;;;6.38;2.88;;;;;;;;;;4974785;28;20478;-88
2022/05/25 12:32:23;;;;;;;7.63;2.28;;;;;;;;;;4969991;28;20030;-89
2022/05/25 12:34:53;;;;;;;5.72;3.25;;;;;;;;;;4974828;28;20044;-88
2022/05/25 12:37:30;;;;;;;9.75;3.50;;;;;;;;;;4974372;28;20046;-87
2022/05/25 12:39:57;;;;;;;7.57;2.45;;;;;;;;;;4974373;28;20378;-88
2022/05/25 12:42:24;;;;;;;10.20;2.78;;;;;;;;;;4980721;28;20027;-86
2022/05/25 12:50:48;;;;;;;5.88;2.17;;;;;;;;;;4989919;28;20081;-87
2022/05/25 12:53:32;;;;;;;6.57;3.00;;;;;;;;;;4970786;28;20085;-87
2022/05/25 12:55:59;;;;;;;10.30;1.02;;;;;;;;;;4982300;28;20045;-88
2022/05/25 12:58:51;;;;;;;2.97;1.00;;;;;;;;;;4962711;28;20061;-88
2022/05/25 13:01:23;;;;;;;7.72;0.98;;;;;;;;;;4957547;28;20046;-88
2022/05/25 13:03:49;;;;;;;1.60;0.85;;;;;;;;;;4981889;28;20045;-89
2022/05/25 13:06:17;;;;;;;3.25;0.85;;;;;;;;;;4983865;28;20141;-88
2022/05/25 13:08:49;;;;;;;2.85;1.08;;;;;;;;;;4969962;28;20054;-88
2022/05/25 13:11:32;;;;;;;3.90;0.60;;;;;;;;;;4985796;28;20042;-89
2022/05/25 13:13:59;;;;;;;2.50;1.10;;;;;;;;;;4980343;28;20038;-88
2022/05/25 13:16:40;;;;;;;1.80;0.82;;;;;;;;;;4987389;28;20022;-87
2022/05/25 13:19:37;;;;;;;4.30;0.90;;;;;;;;;;4968132;28;20283;-87
2022/05/25 13:22:06;;;;;;;2.20;0.50;;;;;;;;;;4977062;28;20031;-90
2022/05/25 13:24:51;;;;;;;3.60;1.60;;;;;;;;;;4966944;28;20616;-87
2022/05/25 13:27:30;;;;;;;9.13;0.98;;;;;;;;;;4982220;28;20061;-89
2022/05/25 13:30:16;;;;;;;1.45;0.55;;;;;;;;;;4980797;28;20023;-90
2022/05/25 13:32:51;;;;;;;7.38;1.00;;;;;;;;;;4979633;28;20039;-89
2022/05/25 13:35:20;;;;;;;0.95;0.60;;;;;;;;;;4975931;28;20034;-87
2022/05/25 13:38:04;;;;;;;2.55;1.10;;;;;;;;;;4969355;28;20876;-87
2022/05/25 13:40:36;;;;;;;6.90;0.90;;;;;;;;;;4975122;28;20526;-89
2022/05/25 13:43:03;;;;;;;4.70;1.02;;;;;;;;;;4977837;28;20096;-88
2022/05/25 13:45:30;;;;;;;6.68;0.88;;;;;;;;;;4979105;28;20478;-87
2022/05/25 13:48:00;;;;;;;7.63;1.38;;;;;;;;;;4961655;28;20026;-89
2022/05/25 13:50:33;;;;;;;6.72;0.90;;;;;;;;;;4966687;28;20113;-88
2022/05/25 13:53:00;;;;;;;3.28;0.68;;;;;;;;;;4962425;28;20437;-89
2022/05/25 13:55:32;;;;;;;2.50;0.60;;;;;;;;;;4963129;28;20036;-87
2022/05/25 13:58:00;;;;;;;3.53;0.88;;;;;;;;;;4982364;28;20034;-90
2022/05/25 14:00:29;;;;;;;15.70;1.05;;;;;;;;;;4984926;28;20038;-87
2022/05/25 14:02:58;;;;;;;3.03;0.73;;;;;;;;;;4982734;28;20033;-88
2022/05/25 14:05:44;;;;;;;3.15;0.88;;;;;;;;;;4969447;28;20026;-89
2022/05/25 14:08:20;;;;;;;1.92;1.05;;;;;;;;;;4966844;28;20112;-89
2022/05/25 14:10:58;;;;;;;6.10;0.63;;;;;;;;;;4991864;28;20034;-90
2022/05/25 14:13:29;;;;;;;7.43;1.65;;;;;;;;;;4962474;28;20520;-90
2022/05/25 14:16:15;;;;;;;11.52;0.70;;;;;;;;;;4967293;28;20027;-90
2022/05/25 14:18:50;;;;;;;2.75;0.75;;;;;;;;;;4994078;28;20037;-88
2022/05/25 14:21:35;;;;;;;2.75;0.90;;;;;;;;;;4968895;28;20106;-90
2022/05/25 14:24:12;;;;;;;2.20;0.73;;;;;;;;;;4982632;28;20045;-90
2022/05/25 14:26:40;;;;;;;2.30;0.63;;;;;;;;;;4974229;28;20111;-91
2022/05/25 14:29:07;;;;;;;1.98;0.90;;;;;;;;;;4973157;28;20042;-88
2022/05/25 14:31:40;;;;;;;2.05;0.68;;;;;;;;;;4967342;28;20795;-91
2022/05/25 14:34:20;;;;;;;3.45;0.70;;;;;;;;;;4984134;28;20053;-90
2022/05/25 14:36:47;;;;;;;2.65;1.23;;;;;;;;;;4979397;28;20038;-89
2022/05/25 14:39:19;;;;;;;2.58;0.52;;;;;;;;;;4960899;28;20034;-90
2022/05/25 14:41:52;;;;;;;14.02;0.95;;;;;;;;;;4984878;28;20027;-90
2022/05/25 14:44:39;;;;;;;3.08;0.85;;;;;;;;;;4992068;28;20089;-91
2022/05/25 14:47:14;;;;;;;4.03;0.82;;;;;;;;;;4966034;28;20113;-89
2022/05/25 14:49:46;;;;;;;7.03;1.27;;;;;;;;;;4982090;28;20050;-90
2022/05/25 14:52:15;;;;;;;2.55;0.70;;;;;;;;;;4965960;28;20062;-91
2022/05/25 14:54:41;;;;;;;2.22;0.70;;;;;;;;;;4969511;28;20711;-91
2022/05/25 14:57:07;;;;;;;3.35;0.90;;;;;;;;;;4969019;28;20042;-90
2022/05/25 14:59:35;;;;;;;4.13;0.82;;;;;;;;;;4977963;28;20066;-90
2022/05/25 15:02:02;;;;;;;4.97;1.05;;;;;;;;;;4971000;28;20031;-90
2022/05/25 15:04:33;;;;;;;6.38;0.90;;;;;;;;;;4972691;28;20065;-89
2022/05/25 15:07:00;;;;;;;4.55;1.20;;;;;;;;;;4979936;28;20027;-90
2022/05/25 15:09:32;;;;;;;1.65;0.52;;;;;;;;;;4969281;28;20042;-93
2022/05/25 15:12:04;;;;;;;5.80;1.08;;;;;;;;;;4984556;28;20026;-91
2022/05/25 15:20:09;;;;;;;1.23;0.60;;;;;;;;;;4990340;28;20088;-90
2022/05/25 15:22:37;;;;;;;5.88;0.90;;;;;;;;;;4971421;28;20088;-91
2022/05/25 15:25:33;;;;;;;4.00;0.90;;;;;;;;;;4990342;28;20041;-90
2022/05/25 15:28:02;;;;;;;4.45;0.63;;;;;;;;;;4953978;28;20042;-90
2022/05/25 15:30:40;;;;;;;5.25;0.90;;;;;;;;;;4966008;28;20059;-90
2022/05/25 15:33:06;;;;;;;3.58;1.00;;;;;;;;;;4974789;28;20060;-89